createdAt,value
2023-02-15T00:00:02.830Z,6.55
2023-02-15T00:02:29.438Z,6.62
2023-02-15T00:04:56.075Z,6.60
2023-02-15T00:07:22.680Z,6.66
2023-02-15T00:09:49.425Z,6.75
2023-02-15T00:12:16.172Z,6.88
2023-02-15T00:14:42.865Z,6.84
2023-02-15T00:17:09.478Z,6.87
2023-02-15T00:19:36.122Z,6.90
2023-02-15T00:22:02.806Z,7.00
2023-02-15T00:24:29.449Z,7.15
2023-02-15T00:26:56.362Z,7.13
2023-02-15T00:29:23.064Z,6.96
2023-02-15T00:31:49.782Z,7.08
2023-02-15T00:34:16.518Z,7.07
2023-02-15T00:36:43.165Z,7.05
2023-02-15T00:39:09.781Z,7.03
2023-02-15T00:41:36.420Z,6.83
2023-02-15T00:44:03.132Z,6.90
2023-02-15T00:46:29.760Z,6.95
2023-02-15T00:48:56.460Z,7.07
2023-02-15T00:51:23.105Z,7.13
2023-02-15T00:53:49.767Z,7.01
2023-02-15T00:56:16.447Z,6.93
2023-02-15T00:58:43.075Z,7.05
2023-02-15T01:01:09.739Z,7.06
2023-02-15T01:03:36.465Z,7.00
2023-02-15T01:06:03.456Z,7.06
2023-02-15T01:08:30.257Z,7.12
2023-02-15T01:10:56.854Z,7.15
2023-02-15T01:13:23.543Z,7.20
2023-02-15T01:15:50.283Z,7.21
2023-02-15T01:18:16.959Z,7.15
2023-02-15T01:20:43.586Z,7.05
2023-02-15T01:23:10.245Z,7.12
2023-02-15T01:25:36.871Z,6.91
2023-02-15T01:28:03.508Z,6.95
2023-02-15T01:30:30.173Z,6.99
2023-02-15T01:32:56.856Z,7.05
2023-02-15T01:35:23.515Z,7.11
2023-02-15T01:37:50.164Z,7.16
2023-02-15T01:40:16.825Z,7.15
2023-02-15T01:42:43.499Z,7.20
2023-02-15T01:45:10.193Z,7.15
2023-02-15T01:47:36.874Z,7.16
2023-02-15T01:50:03.603Z,6.90
2023-02-15T01:52:30.236Z,7.04
2023-02-15T01:54:56.953Z,7.16
2023-02-15T01:57:23.700Z,7.28
2023-02-15T01:59:50.405Z,7.24
2023-02-15T02:02:17.085Z,7.30
2023-02-15T02:04:43.750Z,7.32
2023-02-15T02:07:10.483Z,7.30
2023-02-15T02:09:37.142Z,7.23
2023-02-15T02:12:03.825Z,7.33
2023-02-15T02:14:30.593Z,7.32
2023-02-15T02:16:57.201Z,7.31
2023-02-15T02:19:23.849Z,7.21
2023-02-15T02:21:50.514Z,7.32
2023-02-15T02:24:17.190Z,7.46
2023-02-15T02:26:43.787Z,7.32
2023-02-15T02:29:10.376Z,7.32
2023-02-15T02:31:37.154Z,7.36
2023-02-15T02:34:03.884Z,7.40
2023-02-15T02:36:30.557Z,7.39
2023-02-15T02:38:57.224Z,7.29
2023-02-15T02:41:23.850Z,7.37
2023-02-15T02:43:50.490Z,7.39
2023-02-15T02:46:17.184Z,7.45
2023-02-15T02:48:43.835Z,7.39
2023-02-15T02:51:10.486Z,7.31
2023-02-15T02:53:37.124Z,7.43
2023-02-15T02:56:03.857Z,7.29
2023-02-15T02:58:30.660Z,7.34
2023-02-15T03:00:57.266Z,7.33
2023-02-15T03:03:23.904Z,7.43
2023-02-15T03:05:50.553Z,7.42
2023-02-15T03:08:17.209Z,7.45
2023-02-15T03:10:43.858Z,7.47
2023-02-15T03:13:10.494Z,7.48
2023-02-15T03:15:37.133Z,7.37
2023-02-15T03:18:03.780Z,7.47
2023-02-15T03:20:30.418Z,7.08
2023-02-15T03:22:57.083Z,7.15
2023-02-15T03:25:23.796Z,7.26
2023-02-15T03:27:50.417Z,7.14
2023-02-15T03:30:17.127Z,7.23
2023-02-15T03:32:43.756Z,7.28
2023-02-15T03:35:10.389Z,7.43
2023-02-15T03:37:36.990Z,7.41
2023-02-15T03:40:03.659Z,7.43
2023-02-15T03:42:30.319Z,7.54
2023-02-15T03:44:56.971Z,7.60
2023-02-15T03:47:23.749Z,7.56
2023-02-15T03:49:53.436Z,7.60
2023-02-15T03:52:20.124Z,7.65
2023-02-15T03:54:46.769Z,7.70
2023-02-15T03:57:13.374Z,7.66
2023-02-15T03:59:40.090Z,7.73
2023-02-15T04:02:06.755Z,7.47
2023-02-15T04:04:33.418Z,7.57
2023-02-15T04:07:00.109Z,7.67
2023-02-15T04:09:26.746Z,7.60
2023-02-15T04:11:53.445Z,7.58
2023-02-15T04:14:20.125Z,7.60
2023-02-15T04:16:46.882Z,7.66
2023-02-15T04:19:13.520Z,7.61
2023-02-15T04:21:40.186Z,7.65
2023-02-15T04:24:06.826Z,7.64
2023-02-15T04:26:33.505Z,7.65
2023-02-15T04:29:00.149Z,7.70
2023-02-15T04:31:26.960Z,7.70
2023-02-15T04:33:53.700Z,7.52
2023-02-15T04:36:20.378Z,7.60
2023-02-15T04:38:46.988Z,7.64
2023-02-15T04:41:13.681Z,7.63
2023-02-15T04:43:40.293Z,7.67
2023-02-15T04:46:06.971Z,7.75
2023-02-15T04:48:33.734Z,7.79
2023-02-15T04:51:00.321Z,7.81
2023-02-15T04:53:26.952Z,7.71
2023-02-15T04:55:53.705Z,7.81
2023-02-15T04:58:20.350Z,7.65
2023-02-15T05:00:46.992Z,7.69
2023-02-15T05:03:13.696Z,7.71
2023-02-15T05:05:40.288Z,7.60
2023-02-15T05:08:06.963Z,7.48
2023-02-15T05:10:33.598Z,7.57
2023-02-15T05:13:00.246Z,7.65
2023-02-15T05:15:26.952Z,7.67
2023-02-15T05:17:53.576Z,7.68
2023-02-15T05:20:20.240Z,7.68
2023-02-15T05:22:46.886Z,7.66
2023-02-15T05:25:13.578Z,7.43
2023-02-15T05:27:40.217Z,7.58
2023-02-15T05:30:06.983Z,7.46
2023-02-15T05:32:33.916Z,7.27
2023-02-15T05:35:00.622Z,7.36
2023-02-15T05:37:27.402Z,7.49
2023-02-15T05:39:54.016Z,7.50
2023-02-15T05:42:20.720Z,7.57
2023-02-15T05:44:47.695Z,7.64
2023-02-15T05:47:14.368Z,7.55
2023-02-15T05:49:41.083Z,7.39
2023-02-15T05:52:07.784Z,7.33
2023-02-15T05:54:34.519Z,7.40
2023-02-15T05:57:01.129Z,7.43
2023-02-15T05:59:27.819Z,7.36
2023-02-15T06:01:54.476Z,7.28
2023-02-15T06:04:21.129Z,7.41
2023-02-15T06:06:47.750Z,7.53
2023-02-15T06:09:14.356Z,7.25
2023-02-15T06:11:40.960Z,7.07
2023-02-15T06:14:07.561Z,7.11
2023-02-15T06:16:34.189Z,7.12
2023-02-15T06:19:00.881Z,7.26
2023-02-15T06:21:27.528Z,7.29
2023-02-15T06:23:54.146Z,7.43
2023-02-15T06:26:20.764Z,7.12
2023-02-15T06:28:47.648Z,7.18
2023-02-15T06:31:14.377Z,7.15
2023-02-15T06:33:41.116Z,7.28
2023-02-15T06:36:07.769Z,7.36
2023-02-15T06:38:34.554Z,7.18
2023-02-15T06:41:01.260Z,7.31
2023-02-15T06:43:27.868Z,7.45
2023-02-15T06:45:54.541Z,7.58
2023-02-15T06:48:21.151Z,7.62
2023-02-15T06:50:47.781Z,7.37
2023-02-15T06:53:14.424Z,7.64
2023-02-15T06:55:41.056Z,7.64
2023-02-15T06:58:07.722Z,7.75
2023-02-15T07:00:34.374Z,7.67
2023-02-15T07:03:01.037Z,7.74
2023-02-15T07:05:27.714Z,7.61
2023-02-15T07:07:54.386Z,7.75
2023-02-15T07:10:21.169Z,7.84
2023-02-15T07:12:47.849Z,7.60
2023-02-15T07:15:14.510Z,7.60
2023-02-15T07:17:41.155Z,7.54
2023-02-15T07:20:07.846Z,7.68
2023-02-15T07:22:34.484Z,7.78
2023-02-15T07:25:01.085Z,7.69
2023-02-15T07:27:27.757Z,7.81
2023-02-15T07:29:54.426Z,7.96
2023-02-15T07:32:21.177Z,8.08
2023-02-15T07:34:47.912Z,7.90
2023-02-15T07:37:14.595Z,7.76
2023-02-15T07:39:41.257Z,7.91
2023-02-15T07:42:08.020Z,7.95
2023-02-15T07:44:34.653Z,8.01
2023-02-15T07:47:01.319Z,7.91
2023-02-15T07:49:28.134Z,7.96
2023-02-15T07:51:54.770Z,8.19
2023-02-15T07:54:21.455Z,8.36
2023-02-15T07:56:48.130Z,8.47
2023-02-15T07:59:14.813Z,7.67
2023-02-15T08:01:41.501Z,7.39
2023-02-15T08:04:08.160Z,7.82
2023-02-15T08:06:34.853Z,8.05
2023-02-15T08:09:01.564Z,8.19
2023-02-15T08:11:28.201Z,8.18
2023-02-15T08:13:57.787Z,8.34
2023-02-15T08:16:24.514Z,8.44
2023-02-15T08:18:51.158Z,7.96
2023-02-15T08:21:17.825Z,8.19
2023-02-15T08:23:44.517Z,8.57
2023-02-15T08:26:11.161Z,8.71
2023-02-15T08:28:39.759Z,8.68
2023-02-15T08:31:06.575Z,8.76
2023-02-15T08:33:33.213Z,8.97
2023-02-15T08:35:59.815Z,9.12
2023-02-15T08:38:26.500Z,9.09
2023-02-15T08:40:53.133Z,9.22
2023-02-15T08:43:19.725Z,9.34
2023-02-15T08:45:46.433Z,9.26
2023-02-15T08:48:13.139Z,9.23
2023-02-15T08:50:39.777Z,9.38
2023-02-15T08:53:06.481Z,9.00
2023-02-15T08:55:33.164Z,8.62
2023-02-15T08:57:59.779Z,8.19
2023-02-15T09:00:26.497Z,8.04
2023-02-15T09:02:53.151Z,8.33
2023-02-15T09:05:19.812Z,9.12
2023-02-15T09:07:46.488Z,9.32
2023-02-15T09:10:13.138Z,8.93
2023-02-15T09:12:39.932Z,9.06
2023-02-15T09:15:06.569Z,9.28
2023-02-15T09:17:33.253Z,9.64
2023-02-15T09:19:59.915Z,9.71
2023-02-15T09:22:26.608Z,9.42
2023-02-15T09:24:53.218Z,9.42
2023-02-15T09:27:19.860Z,9.53
2023-02-15T09:29:46.513Z,9.65
2023-02-15T09:32:13.182Z,10.06
2023-02-15T09:34:39.817Z,10.36
2023-02-15T09:37:06.415Z,9.62
2023-02-15T09:39:33.132Z,10.01
2023-02-15T09:41:59.756Z,9.93
2023-02-15T09:44:26.402Z,8.89
2023-02-15T09:46:53.157Z,8.54
2023-02-15T09:49:19.825Z,8.06
2023-02-15T09:51:46.529Z,8.41
2023-02-15T09:54:13.182Z,8.69
2023-02-15T09:56:39.846Z,9.10
2023-02-15T09:59:06.694Z,9.61
2023-02-15T10:01:33.421Z,9.42
2023-02-15T10:04:00.099Z,9.17
2023-02-15T10:06:26.872Z,9.47
2023-02-15T10:08:53.529Z,9.37
2023-02-15T10:11:20.180Z,9.56
2023-02-15T10:13:46.851Z,9.11
2023-02-15T10:16:13.457Z,9.70
2023-02-15T10:18:40.073Z,10.54
2023-02-15T10:21:06.861Z,10.82
2023-02-15T10:23:33.524Z,10.29
2023-02-15T10:26:00.494Z,10.65
2023-02-15T10:28:27.348Z,11.17
2023-02-15T10:30:54.095Z,10.57
2023-02-15T10:33:20.758Z,11.03
2023-02-15T10:35:47.416Z,11.47
2023-02-15T10:38:14.062Z,10.09
2023-02-15T10:40:40.692Z,10.75
2023-02-15T10:43:07.376Z,11.39
2023-02-15T10:45:33.990Z,11.64
2023-02-15T10:48:00.665Z,11.87
2023-02-15T10:50:27.358Z,11.69
2023-02-15T10:52:54.034Z,11.10
2023-02-15T10:55:20.697Z,10.29
2023-02-15T10:57:47.367Z,10.57
2023-02-15T11:00:14.041Z,11.03
2023-02-15T11:02:40.727Z,11.88
2023-02-15T11:05:08.492Z,12.04
2023-02-15T11:07:35.136Z,11.44
2023-02-15T11:10:01.804Z,11.22
2023-02-15T11:12:28.441Z,11.91
2023-02-15T11:14:55.109Z,12.43
2023-02-15T11:17:21.718Z,11.87
2023-02-15T11:19:48.379Z,10.52
2023-02-15T11:22:17.098Z,11.64
2023-02-15T11:24:44.439Z,12.58
2023-02-15T11:27:11.184Z,12.59
2023-02-15T11:29:37.831Z,12.56
2023-02-15T11:32:04.579Z,12.52
2023-02-15T11:34:31.628Z,13.05
2023-02-15T11:36:58.334Z,12.78
2023-02-15T11:39:24.941Z,11.23
2023-02-15T11:41:51.696Z,11.76
2023-02-15T11:44:18.492Z,12.50
2023-02-15T11:46:45.242Z,12.03
2023-02-15T11:49:12.047Z,12.31
2023-02-15T11:51:38.713Z,12.90
2023-02-15T11:54:05.325Z,12.95
2023-02-15T11:56:32.017Z,13.14
2023-02-15T11:58:58.787Z,13.52
2023-02-15T12:01:25.396Z,13.78
2023-02-15T12:03:52.134Z,12.94
2023-02-15T12:06:18.884Z,13.32
2023-02-15T12:08:45.517Z,13.69
2023-02-15T12:11:12.145Z,13.76
2023-02-15T12:13:40.720Z,13.20
2023-02-15T12:16:08.764Z,12.81
2023-02-15T12:18:36.659Z,11.82
2023-02-15T12:21:03.542Z,12.76
2023-02-15T12:23:30.332Z,12.97
2023-02-15T12:25:56.979Z,13.07
2023-02-15T12:28:23.654Z,13.46
2023-02-15T12:30:50.365Z,12.58
2023-02-15T12:33:17.076Z,12.35
2023-02-15T12:35:43.683Z,13.43
2023-02-15T12:38:10.284Z,14.17
2023-02-15T12:40:36.923Z,14.38
2023-02-15T12:43:09.029Z,14.70
2023-02-15T12:45:35.909Z,14.36
2023-02-15T12:48:02.533Z,14.57
2023-02-15T12:50:34.528Z,13.99
2023-02-15T12:53:01.562Z,14.29
2023-02-15T12:55:28.307Z,14.60
2023-02-15T12:57:54.963Z,14.55
2023-02-15T13:00:21.605Z,14.58
2023-02-15T13:02:48.714Z,14.06
2023-02-15T13:05:15.423Z,14.08
2023-02-15T13:07:42.169Z,12.93
2023-02-15T13:10:08.839Z,13.67
2023-02-15T13:12:35.596Z,14.01
2023-02-15T13:15:02.246Z,13.98
2023-02-15T13:17:29.051Z,14.38
2023-02-15T13:19:55.789Z,14.38
2023-02-15T13:22:22.458Z,14.67
2023-02-15T13:24:49.168Z,14.63
2023-02-15T13:27:16.317Z,14.69
2023-02-15T13:29:43.067Z,14.70
2023-02-15T13:32:09.746Z,14.75
2023-02-15T13:34:36.500Z,14.56
2023-02-15T13:37:03.244Z,14.48
2023-02-15T13:39:30.060Z,14.83
2023-02-15T13:41:56.738Z,14.93
2023-02-15T13:44:23.443Z,12.44
2023-02-15T13:46:50.644Z,11.90
2023-02-15T13:49:17.443Z,11.33
2023-02-15T13:51:44.127Z,12.02
2023-02-15T13:54:10.796Z,11.49
2023-02-15T13:56:37.479Z,11.50
2023-02-15T13:59:04.116Z,11.99
2023-02-15T14:01:30.817Z,13.14
2023-02-15T14:03:57.794Z,12.98
2023-02-15T14:06:24.530Z,13.34
2023-02-15T14:08:51.172Z,13.55
2023-02-15T14:11:17.785Z,13.25
2023-02-15T14:13:44.437Z,13.71
2023-02-15T14:16:11.095Z,14.13
2023-02-15T14:18:37.731Z,14.10
2023-02-15T14:21:04.748Z,13.12
2023-02-15T14:23:31.513Z,13.21
2023-02-15T14:25:58.258Z,13.83
2023-02-15T14:28:24.884Z,14.17
2023-02-15T14:30:51.816Z,13.31
2023-02-15T14:33:18.496Z,13.20
2023-02-15T14:35:45.179Z,13.34
2023-02-15T14:38:14.910Z,13.03
2023-02-15T14:40:41.636Z,12.63
2023-02-15T14:43:08.323Z,12.48
2023-02-15T14:45:35.126Z,11.81
2023-02-15T14:48:01.842Z,11.82
2023-02-15T14:50:28.924Z,12.59
2023-02-15T14:52:55.626Z,12.05
2023-02-15T14:55:22.281Z,12.46
2023-02-15T14:57:48.888Z,12.79
2023-02-15T15:00:15.474Z,12.78
2023-02-15T15:02:42.162Z,12.44
2023-02-15T15:05:08.841Z,11.63
2023-02-15T15:07:35.477Z,11.25
2023-02-15T15:10:02.184Z,11.02
2023-02-15T15:12:28.883Z,10.75
2023-02-15T15:14:55.660Z,10.45
2023-02-15T15:17:22.326Z,10.63
2023-02-15T15:19:52.888Z,10.16
2023-02-15T15:22:19.633Z,10.73
2023-02-15T15:24:46.276Z,10.68
2023-02-15T15:27:12.950Z,10.61
2023-02-15T15:29:39.565Z,11.07
2023-02-15T15:32:06.325Z,11.51
2023-02-15T15:34:33.073Z,11.52
2023-02-15T15:36:59.765Z,11.48
2023-02-15T15:39:26.393Z,10.97
2023-02-15T15:41:53.053Z,10.63
2023-02-15T15:44:19.674Z,10.79
2023-02-15T15:46:46.410Z,10.31
2023-02-15T15:49:13.216Z,10.20
2023-02-15T15:51:39.888Z,9.95
2023-02-15T15:54:06.534Z,10.27
2023-02-15T15:56:33.263Z,10.28
2023-02-15T15:58:59.938Z,10.43
2023-02-15T16:01:26.654Z,10.41
2023-02-15T16:03:53.331Z,10.55
2023-02-15T16:06:19.968Z,10.58
2023-02-15T16:08:46.585Z,10.55
2023-02-15T16:11:13.238Z,10.40
2023-02-15T16:13:39.943Z,10.42
2023-02-15T16:16:06.894Z,10.41
2023-02-15T16:18:33.658Z,10.42
2023-02-15T16:21:00.324Z,10.32
2023-02-15T16:23:26.986Z,10.22
2023-02-15T16:25:53.670Z,10.15
2023-02-15T16:28:20.321Z,10.05
2023-02-15T16:30:47.007Z,10.03
2023-02-15T16:33:13.638Z,9.91
2023-02-15T16:35:40.312Z,9.74
2023-02-15T16:38:06.922Z,9.62
2023-02-15T16:40:33.554Z,9.55
2023-02-15T16:43:00.174Z,9.49
2023-02-15T16:45:26.871Z,9.39
2023-02-15T16:47:53.580Z,9.26
2023-02-15T16:50:20.260Z,9.16
2023-02-15T16:52:46.974Z,9.05
2023-02-15T16:55:13.605Z,8.93
2023-02-15T16:57:40.244Z,8.89
2023-02-15T17:00:06.946Z,8.91
2023-02-15T17:02:54.555Z,8.75
2023-02-15T17:05:20.181Z,8.59
2023-02-15T17:07:46.809Z,8.57
2023-02-15T17:10:13.407Z,8.49
2023-02-15T17:12:40.083Z,8.42
2023-02-15T17:15:06.756Z,8.42
2023-02-15T17:17:33.447Z,8.39
2023-02-15T17:20:00.077Z,8.26
2023-02-15T17:22:26.774Z,8.14
2023-02-15T17:24:53.422Z,8.08
2023-02-15T17:27:20.380Z,8.08
2023-02-15T17:29:47.035Z,7.95
2023-02-15T17:32:14.081Z,7.86
2023-02-15T17:34:40.770Z,8.02
2023-02-15T17:37:07.437Z,8.00
2023-02-15T17:39:34.175Z,7.89
2023-02-15T17:42:00.848Z,7.89
2023-02-15T17:44:27.539Z,7.78
2023-02-15T17:46:54.207Z,7.82
2023-02-15T17:49:20.910Z,7.81
2023-02-15T17:51:47.571Z,7.70
2023-02-15T17:54:14.275Z,7.43
2023-02-15T17:56:40.892Z,7.43
2023-02-15T17:59:07.540Z,7.46
2023-02-15T18:01:34.260Z,7.34
2023-02-15T18:04:01.021Z,7.30
2023-02-15T18:06:27.694Z,7.18
2023-02-15T18:08:54.349Z,7.14
2023-02-15T18:11:21.068Z,7.15
2023-02-15T18:13:47.908Z,7.14
2023-02-15T18:16:14.546Z,7.12
2023-02-15T18:18:41.269Z,7.12
2023-02-15T18:21:07.937Z,7.10
2023-02-15T18:23:34.609Z,6.97
2023-02-15T18:26:01.286Z,7.03
2023-02-15T18:28:27.942Z,7.06
2023-02-15T18:30:54.600Z,7.00
2023-02-15T18:33:21.294Z,6.94
2023-02-15T18:35:47.944Z,6.92
2023-02-15T18:38:14.565Z,6.78
2023-02-15T18:40:41.265Z,6.71
2023-02-15T18:43:07.866Z,6.76
2023-02-15T18:45:34.563Z,6.56
2023-02-15T18:48:01.242Z,6.63
2023-02-15T18:50:27.865Z,6.62
2023-02-15T18:52:54.568Z,6.43
2023-02-15T18:55:21.268Z,6.42
2023-02-15T18:57:47.910Z,6.49
2023-02-15T19:00:14.846Z,6.49
2023-02-15T19:02:41.611Z,6.47
2023-02-15T19:05:11.435Z,6.28
2023-02-15T19:07:38.039Z,6.34
2023-02-15T19:10:04.697Z,6.33
2023-02-15T19:12:31.347Z,6.37
2023-02-15T19:14:57.987Z,6.18
2023-02-15T19:17:28.699Z,6.16
2023-02-15T19:19:55.351Z,6.07
2023-02-15T19:22:21.980Z,6.15
2023-02-15T19:24:48.651Z,6.24
2023-02-15T19:27:15.373Z,6.15
2023-02-15T19:29:42.033Z,6.09
2023-02-15T19:32:11.727Z,6.12
2023-02-15T19:34:38.477Z,6.13
2023-02-15T19:37:05.132Z,6.09
2023-02-15T19:39:31.807Z,6.17
2023-02-15T19:41:58.406Z,6.05
2023-02-15T19:44:25.056Z,6.03
2023-02-15T19:46:51.704Z,6.06
2023-02-15T19:49:18.352Z,5.97
2023-02-15T19:51:45.029Z,5.72
2023-02-15T19:54:11.627Z,5.27
2023-02-15T19:56:38.330Z,5.22
2023-02-15T19:59:05.096Z,5.33
2023-02-15T20:01:31.883Z,5.42
2023-02-15T20:03:58.588Z,5.50
2023-02-15T20:06:25.248Z,5.40
2023-02-15T20:08:51.925Z,5.34
2023-02-15T20:11:18.569Z,5.43
2023-02-15T20:13:45.220Z,5.54
2023-02-15T20:16:11.915Z,5.53
2023-02-15T20:18:38.557Z,5.52
2023-02-15T20:21:05.531Z,5.56
2023-02-15T20:23:32.374Z,5.54
2023-02-15T20:25:59.025Z,5.36
2023-02-15T20:28:25.660Z,5.55
2023-02-15T20:30:52.376Z,5.38
2023-02-15T20:33:19.094Z,5.26
2023-02-15T20:35:45.760Z,5.21
2023-02-15T20:38:12.492Z,5.21
2023-02-15T20:40:39.246Z,5.32
2023-02-15T20:43:05.891Z,5.39
2023-02-15T20:45:32.580Z,5.33
2023-02-15T20:47:59.310Z,5.24
2023-02-15T20:50:26.026Z,5.15
2023-02-15T20:52:52.663Z,5.21
2023-02-15T20:55:19.348Z,5.19
2023-02-15T20:57:46.021Z,4.98
2023-02-15T21:00:12.674Z,4.97
2023-02-15T21:02:39.353Z,4.73
2023-02-15T21:05:05.998Z,4.71
2023-02-15T21:07:32.637Z,4.86
2023-02-15T21:09:59.337Z,4.99
2023-02-15T21:12:25.969Z,5.15
2023-02-15T21:14:52.619Z,5.00
2023-02-15T21:17:19.370Z,4.92
2023-02-15T21:19:45.994Z,4.92
2023-02-15T21:22:12.644Z,5.07
2023-02-15T21:24:39.392Z,5.09
2023-02-15T21:27:06.048Z,5.05
2023-02-15T21:29:32.684Z,5.08
2023-02-15T21:31:59.475Z,4.80
2023-02-15T21:34:26.166Z,4.75
2023-02-15T21:36:52.831Z,4.78
2023-02-15T21:39:19.446Z,4.94
2023-02-15T21:41:46.904Z,5.05
2023-02-15T21:44:13.577Z,5.04
2023-02-15T21:46:40.464Z,5.03
2023-02-15T21:49:07.139Z,5.11
2023-02-15T21:51:33.810Z,5.11
2023-02-15T21:54:00.450Z,5.01
2023-02-15T21:56:27.077Z,4.94
2023-02-15T21:58:53.692Z,4.95
2023-02-15T22:01:20.441Z,5.00
2023-02-15T22:03:47.187Z,5.03
2023-02-15T22:06:13.864Z,4.93
2023-02-15T22:08:40.566Z,4.80
2023-02-15T22:11:07.194Z,4.93
2023-02-15T22:13:33.876Z,4.87
2023-02-15T22:16:00.610Z,4.79
2023-02-15T22:18:27.340Z,4.84
2023-02-15T22:20:54.015Z,4.63
2023-02-15T22:23:20.685Z,4.56
2023-02-15T22:25:47.489Z,4.79
2023-02-15T22:28:14.080Z,4.85
2023-02-15T22:30:40.750Z,4.89
2023-02-15T22:33:08.895Z,4.76
2023-02-15T22:35:37.117Z,4.62
2023-02-15T22:38:03.762Z,4.53
2023-02-15T22:40:30.406Z,4.67
2023-02-15T22:42:57.096Z,4.71
2023-02-15T22:45:23.736Z,4.74
2023-02-15T22:47:50.384Z,4.76
2023-02-15T22:50:17.029Z,4.71
2023-02-15T22:52:43.947Z,4.58
2023-02-15T22:55:10.580Z,4.64
2023-02-15T22:57:37.177Z,4.65
2023-02-15T23:00:03.879Z,4.53
2023-02-15T23:02:30.620Z,4.50
2023-02-15T23:04:57.308Z,4.42
2023-02-15T23:07:24.003Z,4.37
2023-02-15T23:09:50.653Z,4.47
2023-02-15T23:12:17.381Z,4.58
2023-02-15T23:14:44.088Z,4.67
2023-02-15T23:17:10.783Z,4.66
2023-02-15T23:19:37.434Z,4.63
2023-02-15T23:22:04.030Z,4.48
2023-02-15T23:24:30.766Z,4.43
2023-02-15T23:26:57.404Z,4.32
2023-02-15T23:29:24.075Z,4.35
2023-02-15T23:31:50.840Z,4.48
2023-02-15T23:34:17.579Z,4.45
2023-02-15T23:36:44.197Z,4.13
2023-02-15T23:39:10.822Z,3.96
2023-02-15T23:41:37.489Z,3.97
2023-02-15T23:44:04.163Z,3.95
2023-02-15T23:46:30.798Z,4.13
2023-02-15T23:48:57.490Z,4.25
2023-02-15T23:51:24.137Z,4.27
2023-02-15T23:53:50.799Z,4.22
2023-02-15T23:56:17.476Z,4.19
2023-02-15T23:58:44.125Z,4.20
